• Join FlightAware (Why Join?)
  • Login
  • US Flag 
04:10AM EDT


 

Airport Tracker/Info


-or-


 

Live Flight TrackerFlight Track Log ✈ RPA956 ✈ 07-May-2012 ✈ KICT - KDEN

Flight Track Log - Related Links

Times and Time Zones

All times are in EDT time to prevent confusion due to time zone crossing. See the RPA956 flight status page for this flight to view local times or setup timezone preferences in your user account.

Time Position Orientation Groundspeed Altitude Reporting Facility
EDT Latitude Longitude Course Direction KTS MPH feet Rate Location/Type
02:43PM 37.6669 -97.4183 332° Northwest 153 176 2,100  Level Kansas City Center
02:43PM 37.6833 -97.4294 288° West 174 200 2,700 1,680 Climbing Kansas City Center
02:44PM 37.7025 -97.5036 275° West 214 246 4,700 1,800 Climbing Kansas City Center
02:45PM 37.7056 -97.5483 275° West 232 267 5,600 1,800 Climbing Kansas City Center
02:46PM 37.7117 -97.6300 275° West 237 273 7,600 2,100 Climbing Kansas City Center
02:47PM 37.7178 -97.7142 275° West 237 273 9,800 2,100 Climbing Kansas City Center
02:48PM 37.7239 -97.7958 276° West 237 273 11,900 2,040 Climbing Kansas City Center
02:49PM 37.7300 -97.8750 278° West 237 273 13,900 1,860 Climbing Kansas City Center
02:50PM 37.7383 -97.9514 273° West 232 267 15,700 1,500 Climbing Kansas City Center
02:51PM 37.7408 -98.0094 276° West 226 260 16,900 1,140 Climbing Kansas City Center
02:52PM 37.7469 -98.0858 276° West 215 247 18,000 1,020 Climbing Kansas City Center
02:53PM 37.7531 -98.1569 276° West 207 238 19,000 900 Climbing Kansas City Center
02:54PM 37.7592 -98.2336 275° West 217 250 19,800 900 Climbing Kansas City Center
02:55PM 37.7647 -98.3153 277° West 227 261 20,800 900 Climbing Kansas City Center
02:56PM 37.7725 -98.3997 275° West 237 273 21,700 900 Climbing Kansas City Center
02:57PM 37.7783 -98.4789 276° West 237 273 22,700 900 Climbing Kansas City Center
02:58PM 37.7858 -98.5633 273° West 237 273 23,500 600 Climbing Kansas City Center
02:59PM 37.7894 -98.6422 276° West 237 273 24,000 240 Climbing Kansas City Center
03:00PM 37.7967 -98.7294 275° West 237 273 24,000  Level Kansas City Center
03:01PM 37.8036 -98.8272 275° West 259 298 24,000  Level Kansas City Center
03:02PM 37.8106 -98.9275 274° West 280 322 24,000  Level Kansas City Center
03:03PM 37.8169 -99.0331 276° West 293 337 24,000  Level Kansas City Center
03:04PM 37.8253 -99.1414 274° West 303 349 24,000  Level Kansas City Center
03:05PM 37.8314 -99.2494 275° West 309 356 24,000  Level Kansas City Center
03:06PM 37.8394 -99.3606 275° West 314 361 24,000  Level Kansas City Center
03:07PM 37.8475 -99.4742 284° West 314 361 24,000  Level Kansas City Center
03:08PM 37.8697 -99.5886 287° West 308 354 24,000  Level Kansas City Center
03:09PM 37.8925 -99.6850 288° West 320 368 24,000  Level Kansas City Center
03:10PM 37.9192 -99.7922 288° West 326 375 24,000  Level Kansas City Center
03:11PM 37.9494 -99.9103 287° West 326 375 24,000  Level Kansas City Center
03:12PM 37.9756 -100.0200 288° West 326 375 24,000  Level Kansas City Center
03:13PM 38.0003 -100.1169 288° West 326 375 24,000  Level Kansas City Center
03:14PM 38.0303 -100.2350 287° West 326 375 24,000  Level Kansas City Center
03:15PM 38.0564 -100.3425 289° West 326 375 24,000  Level Kansas City Center
03:16PM 38.0844 -100.4478 286° West 326 375 24,000  Level Kansas City Center
03:17PM 38.1067 -100.5444 283° West 326 375 24,000  Level Kansas City Center
03:18PM 38.1278 -100.6625 283° West 326 375 24,000  Level Kansas City Center
03:19PM 38.1472 -100.7722 285° West 319 367 24,000  Level Kansas City Center
03:20PM 38.1669 -100.8692 283° West 319 367 24,000  Level Kansas City Center
03:22PM 38.2028 -101.0756 283° West 304 350 24,000  Level Denver Center
03:23PM 38.2225 -101.1853 284° West 316 364 24,000  Level Denver Center
03:24PM 38.2417 -101.2842 283° West 316 364 24,000  Level Denver Center
03:25PM 38.2636 -101.4042 283° West 322 371 24,000  Level Denver Center
03:26PM 38.2831 -101.5139 283° West 322 371 24,000  Level Denver Center
03:27PM 38.3025 -101.6239 288° West 322 371 24,000  Level Denver Center
03:28PM 38.3275 -101.7228 304° West 322 371 24,000  Level Denver Center
03:29PM 38.3819 -101.8275 303° West 325 374 24,000  Level Denver Center
03:30PM 38.4317 -101.9250 301° West 330 380 24,000  Level Denver Center
03:31PM 38.4747 -102.0153 303° West 330 380 24,000  Level Denver Center
03:32PM 38.5247 -102.1156 302° West 330 380 24,000  Level Denver Center
03:33PM 38.5786 -102.2239 303° West 330 380 24,000  Level Denver Center
03:34PM 38.6281 -102.3219 300° West 330 380 24,000  Level Denver Center
03:35PM 38.6714 -102.4178 304° West 330 380 24,000  Level Denver Center
03:36PM 38.7225 -102.5133 301° West 330 380 24,000  Level Denver Center
03:37PM 38.7744 -102.6247 301° West 330 380 24,000  Level Denver Center
03:38PM 38.8214 -102.7261 302° West 330 380 24,000  Level Denver Center
03:39PM 38.8706 -102.8275 302° West 330 380 24,000  Level Denver Center
03:42PM 39.0131 -103.1222 303° West 330 380 24,000  Level Denver Center
03:43PM 39.0639 -103.2239 300° West 330 380 24,000  Level Denver Center
03:44PM 39.1106 -103.3261 302° West 330 380 24,000 -1,080 Level Denver Center
03:47PM 39.2564 -103.6333 300° West 330 380 19,800 -1,320 Descending Denver Center
03:52PM 39.4667 -104.1000 303° West 271 312 14,000 -1,020 Descending Denver TRACON
03:53PM 39.5150 -104.1961 299° West 278 320 14,000  Level Denver Center
03:54PM 39.5542 -104.2892 298° West 285 328 14,000 -480 Level Denver Center
03:55PM 39.5936 -104.3847 298° West 291 335 13,100 -540 Descending Denver Center
03:56PM 39.6350 -104.4861 299° West 303 349 13,000 -60 Descending Denver Center
03:57PM 39.6833 -104.6000 297° West 308 354 13,000 -600 Level Denver TRACON
03:58PM 39.7167 -104.6833 298° West 307 353 11,900 -1,080 Descending Denver TRACON
03:59PM 39.7500 -104.7667 343° North 299 344 11,000 -480 Descending Denver TRACON
04:00PM 39.8333 -104.8000 360° North 279 321 11,000  Level Denver TRACON
04:01PM 39.9000 -104.8000 351° North 266 306 11,000  Level Denver TRACON
04:02PM 39.9833 -104.8167 360° North 258 297 11,000 -240 Level Denver TRACON
04:03PM 40.0500 -104.8167 360° North 259 298 10,500 -540 Descending Denver TRACON
04:04PM 40.1167 -104.8167 360° North 261 300 10,000 -300 Descending Denver TRACON
04:05PM 40.1833 -104.8167 21° North 255 293 10,000  Level Denver TRACON
04:06PM 40.2500 -104.7833 105° East 252 290 10,000  Level Denver TRACON
04:07PM 40.2333 -104.7000 166° South 220 253 10,000  Level Denver TRACON
04:08PM 40.1833 -104.6833 180° South 201 231 10,000 -60 Level Denver TRACON
04:09PM 40.1333 -104.6833 180° South 181 208 9,900 -540 Descending Denver TRACON
04:10PM 40.0833 -104.6833 180° South 184 212 9,000 -960 Descending Denver TRACON
04:11PM 40.0333 -104.6833 180° South 183 211 8,000 -1,020 Descending Denver TRACON